sensor_id;sensor_type;location;lat;lon;timestamp;P1;durP1;ratioP1;P2;durP2;ratioP2
1795;SDS011;895;48.230;11.678;2022-10-03T11:27:29;5.87;;;3.27;;
1795;SDS011;895;48.230;11.678;2022-10-03T11:30:37;8.00;;;4.00;;
1795;SDS011;895;48.230;11.678;2022-10-03T11:33:39;4.63;;;3.50;;
1795;SDS011;895;48.230;11.678;2022-10-03T11:39:31;4.00;;;3.60;;
1795;SDS011;895;48.230;11.678;2022-10-03T11:42:09;4.80;;;3.60;;
1795;SDS011;895;48.230;11.678;2022-10-03T11:44:50;4.40;;;3.10;;
1795;SDS011;895;48.230;11.678;2022-10-03T11:47:28;3.20;;;3.00;;
1795;SDS011;895;48.230;11.678;2022-10-03T11:50:14;5.87;;;3.80;;
1795;SDS011;895;48.230;11.678;2022-10-03T11:53:02;5.20;;;3.13;;
1795;SDS011;895;48.230;11.678;2022-10-03T11:55:39;3.70;;;3.40;;
1795;SDS011;895;48.230;11.678;2022-10-03T11:58:14;5.40;;;2.97;;
1795;SDS011;895;48.230;11.678;2022-10-03T12:01:00;6.37;;;4.00;;
1795;SDS011;895;48.230;11.678;2022-10-03T12:03:43;4.67;;;3.17;;
1795;SDS011;895;48.230;11.678;2022-10-03T12:06:24;4.10;;;3.80;;
1795;SDS011;895;48.230;11.678;2022-10-03T12:09:26;3.60;;;3.10;;
1795;SDS011;895;48.230;11.678;2022-10-03T12:12:04;3.90;;;3.20;;
1795;SDS011;895;48.230;11.678;2022-10-03T12:14:39;3.70;;;3.40;;
1795;SDS011;895;48.230;11.678;2022-10-03T12:17:13;4.97;;;3.60;;
1795;SDS011;895;48.230;11.678;2022-10-03T12:19:49;7.50;;;3.63;;
1795;SDS011;895;48.230;11.678;2022-10-03T12:22:26;5.30;;;3.40;;
1795;SDS011;895;48.230;11.678;2022-10-03T12:25:05;6.83;;;5.67;;
1795;SDS011;895;48.230;11.678;2022-10-03T12:27:46;5.47;;;3.20;;
1795;SDS011;895;48.230;11.678;2022-10-03T12:30:36;3.63;;;3.33;;
1795;SDS011;895;48.230;11.678;2022-10-03T12:33:16;3.67;;;2.83;;
1795;SDS011;895;48.230;11.678;2022-10-03T12:35:59;3.73;;;3.17;;
1795;SDS011;895;48.230;11.678;2022-10-03T12:38:39;6.30;;;3.40;;
1795;SDS011;895;48.230;11.678;2022-10-03T12:41:18;3.47;;;3.00;;
1795;SDS011;895;48.230;11.678;2022-10-03T12:44:01;2.73;;;2.43;;
1795;SDS011;895;48.230;11.678;2022-10-03T12:46:43;6.50;;;2.77;;
1795;SDS011;895;48.230;11.678;2022-10-03T12:49:17;3.50;;;3.20;;
1795;SDS011;895;48.230;11.678;2022-10-03T12:51:53;4.57;;;3.53;;
1795;SDS011;895;48.230;11.678;2022-10-03T12:54:38;4.77;;;3.10;;
1795;SDS011;895;48.230;11.678;2022-10-03T12:57:18;6.27;;;4.70;;
1795;SDS011;895;48.230;11.678;2022-10-03T13:00:15;4.10;;;2.97;;
1795;SDS011;895;48.230;11.678;2022-10-03T13:02:46;3.90;;;2.27;;
1795;SDS011;895;48.230;11.678;2022-10-03T13:05:32;5.60;;;2.30;;
1795;SDS011;895;48.230;11.678;2022-10-03T13:08:05;4.93;;;3.33;;
1795;SDS011;895;48.230;11.678;2022-10-03T13:10:47;4.13;;;2.47;;
1795;SDS011;895;48.230;11.678;2022-10-03T13:13:20;3.50;;;2.10;;
1795;SDS011;895;48.230;11.678;2022-10-03T13:18:56;2.30;;;2.10;;
1795;SDS011;895;48.230;11.678;2022-10-03T13:21:35;2.60;;;1.95;;
1795;SDS011;895;48.230;11.678;2022-10-03T13:24:28;6.10;;;1.70;;
1795;SDS011;895;48.230;11.678;2022-10-03T13:27:03;2.15;;;1.65;;
1795;SDS011;895;48.230;11.678;2022-10-03T13:29:42;3.65;;;1.83;;
1795;SDS011;895;48.230;11.678;2022-10-03T13:32:22;3.83;;;1.80;;
1795;SDS011;895;48.230;11.678;2022-10-03T13:34:57;2.20;;;1.40;;
1795;SDS011;895;48.230;11.678;2022-10-03T13:38:01;4.10;;;1.67;;
1795;SDS011;895;48.230;11.678;2022-10-03T13:40:36;1.80;;;1.27;;
1795;SDS011;895;48.230;11.678;2022-10-03T13:43:08;2.70;;;1.40;;
1795;SDS011;895;48.230;11.678;2022-10-03T13:45:39;3.53;;;1.93;;
1795;SDS011;895;48.230;11.678;2022-10-03T13:48:10;2.33;;;1.40;;
1795;SDS011;895;48.230;11.678;2022-10-03T13:50:43;7.17;;;2.40;;
1795;SDS011;895;48.230;11.678;2022-10-03T13:53:18;2.10;;;1.87;;
1795;SDS011;895;48.230;11.678;2022-10-03T13:56:07;4.70;;;1.97;;
1795;SDS011;895;48.230;11.678;2022-10-03T13:58:42;3.30;;;2.40;;
1795;SDS011;895;48.230;11.678;2022-10-03T14:01:28;6.40;;;1.80;;
1795;SDS011;895;48.230;11.678;2022-10-03T14:04:10;2.03;;;1.60;;
1795;SDS011;895;48.230;11.678;2022-10-03T14:07:01;5.70;;;2.50;;
1795;SDS011;895;48.230;11.678;2022-10-03T14:09:44;4.77;;;1.67;;
1795;SDS011;895;48.230;11.678;2022-10-03T14:12:30;1.57;;;1.30;;
1795;SDS011;895;48.230;11.678;2022-10-03T14:15:18;2.47;;;1.83;;
1795;SDS011;895;48.230;11.678;2022-10-03T14:17:52;5.13;;;2.20;;
1795;SDS011;895;48.230;11.678;2022-10-03T14:20:31;1.77;;;1.57;;
1795;SDS011;895;48.230;11.678;2022-10-03T14:23:06;3.73;;;1.83;;
1795;SDS011;895;48.230;11.678;2022-10-03T14:25:43;2.93;;;1.30;;
1795;SDS011;895;48.230;11.678;2022-10-03T14:28:17;3.20;;;1.30;;
1795;SDS011;895;48.230;11.678;2022-10-03T14:30:57;3.70;;;1.77;;
1795;SDS011;895;48.230;11.678;2022-10-03T14:33:30;3.50;;;1.90;;
1795;SDS011;895;48.230;11.678;2022-10-03T14:36:07;2.90;;;1.60;;
1795;SDS011;895;48.230;11.678;2022-10-03T14:38:55;3.87;;;1.60;;
1795;SDS011;895;48.230;11.678;2022-10-03T14:41:42;3.33;;;2.00;;
1795;SDS011;895;48.230;11.678;2022-10-03T14:44:12;4.30;;;1.70;;
1795;SDS011;895;48.230;11.678;2022-10-03T14:46:45;4.30;;;2.30;;
1795;SDS011;895;48.230;11.678;2022-10-03T14:49:16;2.40;;;1.80;;
1795;SDS011;895;48.230;11.678;2022-10-03T14:51:49;4.47;;;1.70;;
1795;SDS011;895;48.230;11.678;2022-10-03T14:54:21;4.07;;;2.13;;
1795;SDS011;895;48.230;11.678;2022-10-03T14:56:52;2.70;;;2.10;;
1795;SDS011;895;48.230;11.678;2022-10-03T14:59:21;4.47;;;1.70;;
1795;SDS011;895;48.230;11.678;2022-10-03T15:01:54;2.80;;;1.97;;
1795;SDS011;895;48.230;11.678;2022-10-03T15:04:25;2.33;;;2.13;;
1795;SDS011;895;48.230;11.678;2022-10-03T15:06:55;7.00;;;2.20;;
1795;SDS011;895;48.230;11.678;2022-10-03T15:09:27;1.83;;;1.30;;
1795;SDS011;895;48.230;11.678;2022-10-03T15:12:01;3.60;;;2.43;;
1795;SDS011;895;48.230;11.678;2022-10-03T15:14:33;3.00;;;1.57;;
1795;SDS011;895;48.230;11.678;2022-10-03T15:17:04;3.57;;;1.93;;
1795;SDS011;895;48.230;11.678;2022-10-03T15:19:41;5.50;;;2.40;;
1795;SDS011;895;48.230;11.678;2022-10-03T15:22:18;2.80;;;1.90;;
1795;SDS011;895;48.230;11.678;2022-10-03T15:24:52;2.93;;;1.37;;
1795;SDS011;895;48.230;11.678;2022-10-03T15:27:24;2.03;;;1.73;;
1795;SDS011;895;48.230;11.678;2022-10-03T15:29:53;3.60;;;1.80;;
1795;SDS011;895;48.230;11.678;2022-10-03T15:32:23;5.07;;;2.00;;
1795;SDS011;895;48.230;11.678;2022-10-03T15:34:55;6.33;;;1.60;;
1795;SDS011;895;48.230;11.678;2022-10-03T15:37:25;2.10;;;1.60;;
1795;SDS011;895;48.230;11.678;2022-10-03T15:40:00;5.17;;;2.10;;
1795;SDS011;895;48.230;11.678;2022-10-03T15:42:36;4.10;;;2.23;;
1795;SDS011;895;48.230;11.678;2022-10-03T15:45:16;3.03;;;1.70;;
1795;SDS011;895;48.230;11.678;2022-10-03T15:47:46;3.57;;;1.80;;
1795;SDS011;895;48.230;11.678;2022-10-03T15:50:16;1.80;;;1.30;;
1795;SDS011;895;48.230;11.678;2022-10-03T15:52:48;7.43;;;2.47;;
1795;SDS011;895;48.230;11.678;2022-10-03T15:55:17;2.93;;;1.83;;
1795;SDS011;895;48.230;11.678;2022-10-03T15:57:50;4.50;;;1.47;;
1795;SDS011;895;48.230;11.678;2022-10-03T16:00:20;7.10;;;1.97;;
1795;SDS011;895;48.230;11.678;2022-10-03T16:02:52;5.57;;;1.50;;
1795;SDS011;895;48.230;11.678;2022-10-03T16:05:26;4.23;;;1.50;;
1795;SDS011;895;48.230;11.678;2022-10-03T16:07:56;3.67;;;1.57;;
1795;SDS011;895;48.230;11.678;2022-10-03T16:10:27;8.87;;;1.63;;
1795;SDS011;895;48.230;11.678;2022-10-03T16:13:01;1.53;;;1.37;;
1795;SDS011;895;48.230;11.678;2022-10-03T16:18:40;5.30;;;1.67;;
1795;SDS011;895;48.230;11.678;2022-10-03T16:21:29;4.07;;;1.80;;
1795;SDS011;895;48.230;11.678;2022-10-03T16:24:05;8.50;;;1.70;;
1795;SDS011;895;48.230;11.678;2022-10-03T16:26:43;2.23;;;1.50;;
1795;SDS011;895;48.230;11.678;2022-10-03T16:29:18;2.70;;;1.50;;
1795;SDS011;895;48.230;11.678;2022-10-03T16:31:49;3.60;;;2.23;;
1795;SDS011;895;48.230;11.678;2022-10-03T16:34:19;2.73;;;2.00;;
1795;SDS011;895;48.230;11.678;2022-10-03T16:36:50;2.67;;;2.37;;
1795;SDS011;895;48.230;11.678;2022-10-03T16:39:19;5.13;;;2.60;;
1795;SDS011;895;48.230;11.678;2022-10-03T16:41:50;3.03;;;2.40;;
1795;SDS011;895;48.230;11.678;2022-10-03T16:44:22;2.87;;;2.57;;
1795;SDS011;895;48.230;11.678;2022-10-03T16:46:51;3.10;;;2.57;;
1795;SDS011;895;48.230;11.678;2022-10-03T16:49:34;4.67;;;3.40;;
1795;SDS011;895;48.230;11.678;2022-10-03T16:52:28;3.97;;;2.30;;
1795;SDS011;895;48.230;11.678;2022-10-03T16:54:58;9.10;;;3.43;;
1795;SDS011;895;48.230;11.678;2022-10-03T16:57:28;6.57;;;2.77;;
1795;SDS011;895;48.230;11.678;2022-10-03T17:00:02;3.07;;;2.63;;
1795;SDS011;895;48.230;11.678;2022-10-03T17:02:32;2.10;;;1.90;;
1795;SDS011;895;48.230;11.678;2022-10-03T17:05:03;2.87;;;2.40;;
1795;SDS011;895;48.230;11.678;2022-10-03T17:07:35;3.53;;;2.60;;
1795;SDS011;895;48.230;11.678;2022-10-03T17:10:04;5.97;;;3.23;;
1795;SDS011;895;48.230;11.678;2022-10-03T17:12:52;6.27;;;3.10;;
1795;SDS011;895;48.230;11.678;2022-10-03T17:15:25;4.90;;;2.73;;
1795;SDS011;895;48.230;11.678;2022-10-03T17:17:56;6.57;;;3.40;;
1795;SDS011;895;48.230;11.678;2022-10-03T17:20:34;5.07;;;2.43;;
1795;SDS011;895;48.230;11.678;2022-10-03T17:23:07;3.53;;;2.97;;
1795;SDS011;895;48.230;11.678;2022-10-03T17:25:42;3.00;;;2.13;;
1795;SDS011;895;48.230;11.678;2022-10-03T17:28:26;3.17;;;2.80;;
1795;SDS011;895;48.230;11.678;2022-10-03T17:31:21;7.80;;;2.80;;
1795;SDS011;895;48.230;11.678;2022-10-03T17:33:56;4.20;;;2.60;;
1795;SDS011;895;48.230;11.678;2022-10-03T17:36:37;3.60;;;3.23;;
1795;SDS011;895;48.230;11.678;2022-10-03T17:39:19;5.13;;;3.30;;
1795;SDS011;895;48.230;11.678;2022-10-03T17:41:58;4.57;;;3.60;;
1795;SDS011;895;48.230;11.678;2022-10-03T17:44:32;4.80;;;3.50;;
1795;SDS011;895;48.230;11.678;2022-10-03T17:47:09;5.67;;;4.23;;
1795;SDS011;895;48.230;11.678;2022-10-03T17:49:41;7.10;;;6.03;;
1795;SDS011;895;48.230;11.678;2022-10-03T17:52:16;8.57;;;6.97;;
1795;SDS011;895;48.230;11.678;2022-10-03T17:54:45;7.63;;;6.00;;
1795;SDS011;895;48.230;11.678;2022-10-03T17:57:15;7.70;;;6.40;;
1795;SDS011;895;48.230;11.678;2022-10-03T17:59:49;7.97;;;6.63;;
1795;SDS011;895;48.230;11.678;2022-10-03T18:02:24;9.80;;;6.90;;
1795;SDS011;895;48.230;11.678;2022-10-03T18:05:00;8.37;;;6.20;;
1795;SDS011;895;48.230;11.678;2022-10-03T18:07:37;6.23;;;5.27;;
1795;SDS011;895;48.230;11.678;2022-10-03T18:10:08;7.87;;;6.00;;
1795;SDS011;895;48.230;11.678;2022-10-03T18:12:44;8.00;;;5.80;;
1795;SDS011;895;48.230;11.678;2022-10-03T18:15:21;5.27;;;4.77;;
1795;SDS011;895;48.230;11.678;2022-10-03T18:18:18;6.13;;;5.43;;
1795;SDS011;895;48.230;11.678;2022-10-03T18:21:05;7.20;;;6.50;;
1795;SDS011;895;48.230;11.678;2022-10-03T18:23:36;9.10;;;6.30;;
1795;SDS011;895;48.230;11.678;2022-10-03T18:26:11;9.37;;;6.80;;
1795;SDS011;895;48.230;11.678;2022-10-03T18:28:46;7.77;;;6.53;;
1795;SDS011;895;48.230;11.678;2022-10-03T18:31:21;6.37;;;5.77;;
1795;SDS011;895;48.230;11.678;2022-10-03T18:33:53;10.10;;;6.83;;
1795;SDS011;895;48.230;11.678;2022-10-03T18:36:24;8.37;;;6.23;;
1795;SDS011;895;48.230;11.678;2022-10-03T18:38:55;9.20;;;8.30;;
1795;SDS011;895;48.230;11.678;2022-10-03T18:41:24;7.67;;;5.70;;
1795;SDS011;895;48.230;11.678;2022-10-03T18:43:52;8.50;;;6.17;;
1795;SDS011;895;48.230;11.678;2022-10-03T18:46:24;9.90;;;6.90;;
1795;SDS011;895;48.230;11.678;2022-10-03T18:49:00;8.50;;;6.10;;
1795;SDS011;895;48.230;11.678;2022-10-03T18:51:31;7.83;;;5.80;;
1795;SDS011;895;48.230;11.678;2022-10-03T18:54:01;6.57;;;5.57;;
1795;SDS011;895;48.230;11.678;2022-10-03T18:56:32;5.43;;;4.83;;
1795;SDS011;895;48.230;11.678;2022-10-03T18:59:09;8.93;;;5.50;;
1795;SDS011;895;48.230;11.678;2022-10-03T19:01:42;5.53;;;4.10;;
1795;SDS011;895;48.230;11.678;2022-10-03T19:04:18;6.43;;;4.93;;
1795;SDS011;895;48.230;11.678;2022-10-03T19:06:57;4.80;;;4.10;;
1795;SDS011;895;48.230;11.678;2022-10-03T19:09:27;5.57;;;5.07;;
1795;SDS011;895;48.230;11.678;2022-10-03T19:12:00;7.50;;;5.03;;
1795;SDS011;895;48.230;11.678;2022-10-03T19:14:37;6.13;;;5.50;;
1795;SDS011;895;48.230;11.678;2022-10-03T19:17:23;5.87;;;4.67;;
1795;SDS011;895;48.230;11.678;2022-10-03T19:19:59;5.70;;;4.93;;
1795;SDS011;895;48.230;11.678;2022-10-03T19:22:37;10.20;;;5.80;;
1795;SDS011;895;48.230;11.678;2022-10-03T19:25:12;6.30;;;5.13;;
